LIPQ

Details ICAO LIPQ (TRS)
Name Ronchi Dei Legionari
Region Italy
Timezone Europe/Rome (UTC+2.0)
Plans Departing 287
Arriving 198
Stats Elevation 37 ft / 11 m (AMSL)
Location 45.827857° 13.466663°
Runways 1
Magnetic Variation 3.481° E
Sunrise 2018-05-22 03:28:50 UTC / 2018-05-22 05:28:50 Local
Sunset 2018-05-22 18:39:36 UTC / 2018-05-22 20:39:36 Local
Advertisement - Login to hide

Runways

ID Width Length Bearing (true) Bearing (mag) Surface Threshold Offset Overrun Length
09 148 ft / 45 m 9,819 ft / 2,993 m 90.42° 86.94° Asphalt 823 ft / 251 m 0 ft / 0 m
27 148 ft / 45 m 9,819 ft / 2,993 m 270.44° 266.96° Asphalt 10 ft / 3 m 190 ft / 58 m

Approach Navaids

Runway Type Ident Frequency Range Bearing (true) Bearing (mag) Slope Elevation
09 Localiser RNC 110.75 MHz 18 nm / 33 km 90.43° 86.95° - 43 ft / 13 m (AMSL)
09 Glidescope RNC 110.75 MHz 10 nm / 19 km 90.43° 86.95° 3.00° 82 ft / 25 m (AMSL)
09 DME RNC 110.75 MHz 18 nm / 33 km - - - 53 ft / 16 m (AMSL)

Map

Weather


0- 5 10 15 20 25 30 35+ Temperature / ° C

Clouds and Precipitation
Forecast for 2018-05-22 00:00 UTC. Updated an hour ago

Ground ~20,000 ft ~40,000 ft Winds

METAR

LIPQ 220020Z AUTO 35004KT 9999 NSC 18/12 Q1011

TAF

TAF LIPQ 212300Z 2200/2224 VRB06KT 9999 SCT040 TEMPO 2206/2218 SHRA

Frequencies

Tower 130.20 MHz TWR
Approach 119.15 MHz APP
Warning: Do not use this data for real-world aviation or navigation. No guarantee of current accuracy is given.